パラオ の空港の天気 - METARとTAF

パラオ国際空港 ( PTRO / ROR ) - パラオ アイライ州
飛行場実況気象(Metar)
観測時間02/01 17:50 PWT (02/01 08:50 UTC)
風向・風速東北東 5m/s 瞬間風速9m/s
視程10km以上
天気現象弱いしゅう雨
全天の8割程度の雲 雲底高度 460m
全天の8割程度の雲 雲底高度 3350m
全天の8割程度の雲 雲底高度 8840m
気温27℃
湿度84%
気圧1008hPa
METARPTRO 010850Z 07010G18KT 10SM -SHRA BKN015CB BKN110 BKN290 27/24 A2976 RMK CB ALQDS
過去の天気等 Google飛行場航空写真 Wunderground天気予報

過去48時間のMETAR

飛行場予報(TAF)
発表時間: 2/01 14:26 PWT (2/01 05:26 UTC)
予報対象時間: 1日15時 PWT ~ 2日15時 PWT
風向・風速東北東 6m/s 瞬間風速 11m/s
視程10km以上
天気現象周辺でしゅう雨
全天の4割程度の雲 雲底高度 460m
全天の4割程度の雲 雲底高度 3660m
PTRO 010526Z 0106/0206 06011G22KT P6SM VCSH SCT015 SCT120